Terminal Aerodrome Forecast
Issued by NWS Sioux Falls, SD

Home | Current Version | Previous Version | Graphics & Text | Print | Product List | Glossary Off
Versions: 1 2 3 4 5 6 7 8 9 10 11 12 13

000
FTUS43 KFSD 190500
TAFHON
TAF
KHON 190522Z 1906/2006 16018G25KT P6SM BKN150
     FM190900 18012G18KT P6SM BKN120
     FM191200 30008KT P6SM BKN120
     FM192000 27008KT P6SM BKN200
     FM200100 VRB03KT P6SM SCT250=

USA.gov is the U.S. government's official web portal to all federal, state and local government web resources and services.